Time;durP1;ratioP1;P1;durP2;ratioP2;P2;SDS_P1;SDS_P2;PMS_P1;PMS_P2;Temp;Humidity;BMP_temperature;BMP_pressure;BME280_temperature;BME280_humidity;BME280_pressure;Samples;Min_cycle;Max_cycle;Signal;HPM_P1;HPM_P2
2023/10/12 00:02:04;;;;;;;10.50;6.30;;;;;;;;;;5023105;28;20692;-65
2023/10/12 00:04:38;;;;;;;11.60;5.90;;;;;;;;;;5016167;28;20676;-66
2023/10/12 00:07:11;;;;;;;11.30;6.20;;;;;;;;;;5017627;28;20724;-65
2023/10/12 00:09:39;;;;;;;8.93;6.33;;;;;;;;;;5017514;28;20672;-66
2023/10/12 00:12:11;;;;;;;18.63;5.87;;;;;;;;;;5017738;28;20703;-66
2023/10/12 00:14:41;;;;;;;10.00;5.33;;;;;;;;;;4999005;28;20917;-66
2023/10/12 00:17:09;;;;;;;10.90;5.47;;;;;;;;;;5028805;28;20683;-66
2023/10/12 00:19:38;;;;;;;11.60;5.63;;;;;;;;;;5036414;28;20715;-65
2023/10/12 00:22:11;;;;;;;12.33;5.80;;;;;;;;;;5037240;28;20687;-64
2023/10/12 00:24:39;;;;;;;10.23;5.57;;;;;;;;;;5036679;28;20675;-66
2023/10/12 00:27:09;;;;;;;9.20;5.97;;;;;;;;;;5037781;28;20658;-66
2023/10/12 00:29:39;;;;;;;11.17;6.07;;;;;;;;;;5036174;28;20704;-66
2023/10/12 00:32:09;;;;;;;11.77;5.43;;;;;;;;;;5019744;28;20644;-66
2023/10/12 00:34:39;;;;;;;8.60;5.40;;;;;;;;;;5026363;28;20613;-66
2023/10/12 00:37:08;;;;;;;7.67;5.50;;;;;;;;;;5017399;28;20699;-66
2023/10/12 00:39:46;;;;;;;9.53;5.80;;;;;;;;;;5016021;28;20643;-64
2023/10/12 00:42:17;;;;;;;13.43;5.93;;;;;;;;;;5006166;28;20747;-66
2023/10/12 00:44:52;;;;;;;18.30;5.87;;;;;;;;;;5028147;28;21094;-66
2023/10/12 00:47:29;;;;;;;8.80;6.17;;;;;;;;;;5036725;28;20686;-66
2023/10/12 00:50:05;;;;;;;10.83;5.90;;;;;;;;;;5035032;28;20706;-66
2023/10/12 00:52:46;;;;;;;9.40;5.90;;;;;;;;;;5031191;28;21025;-66
2023/10/12 00:55:21;;;;;;;7.20;5.33;;;;;;;;;;5035368;28;20675;-66
2023/10/12 00:57:50;;;;;;;10.30;5.87;;;;;;;;;;5034992;28;20651;-66
2023/10/12 01:00:19;;;;;;;16.07;5.80;;;;;;;;;;5035435;28;20618;-63
2023/10/12 01:05:35;;;;;;;15.20;5.90;;;;;;;;;;5009563;28;20634;-63
2023/10/12 01:08:04;;;;;;;9.70;6.13;;;;;;;;;;5012252;28;20639;-63
2023/10/12 01:10:32;;;;;;;7.03;5.53;;;;;;;;;;5016577;28;20624;-64
2023/10/12 01:13:01;;;;;;;11.20;5.50;;;;;;;;;;5031643;28;20612;-63
2023/10/12 01:15:30;;;;;;;14.90;5.97;;;;;;;;;;5031172;28;20623;-64
2023/10/12 01:18:01;;;;;;;14.33;5.83;;;;;;;;;;5031849;28;20669;-63
2023/10/12 01:20:38;;;;;;;7.17;6.03;;;;;;;;;;5031060;28;20618;-64
2023/10/12 01:23:08;;;;;;;11.03;6.03;;;;;;;;;;5031339;28;21133;-64
2023/10/12 01:25:40;;;;;;;8.60;5.47;;;;;;;;;;5031259;28;20619;-65
2023/10/12 01:28:12;;;;;;;9.10;5.80;;;;;;;;;;5027251;28;20662;-63
2023/10/12 01:30:40;;;;;;;10.53;5.30;;;;;;;;;;5011630;28;20585;-63
2023/10/12 01:33:07;;;;;;;15.33;5.40;;;;;;;;;;5012014;28;20623;-63
2023/10/12 01:35:39;;;;;;;8.87;5.90;;;;;;;;;;5011885;28;20613;-64
2023/10/12 01:38:09;;;;;;;11.50;5.20;;;;;;;;;;5010362;28;20585;-63
2023/10/12 01:40:52;;;;;;;10.40;5.10;;;;;;;;;;5011664;28;20577;-63
2023/10/12 01:43:21;;;;;;;9.53;5.90;;;;;;;;;;5011107;28;21529;-63
2023/10/12 01:45:58;;;;;;;13.67;6.27;;;;;;;;;;5016842;28;21193;-63
2023/10/12 01:48:29;;;;;;;9.70;5.80;;;;;;;;;;5031253;28;20634;-63
2023/10/12 01:50:57;;;;;;;6.67;5.97;;;;;;;;;;5030798;28;20626;-64
2023/10/12 01:53:29;;;;;;;10.53;5.70;;;;;;;;;;5031257;28;20615;-63
2023/10/12 01:55:59;;;;;;;7.23;5.20;;;;;;;;;;5030732;28;21147;-63
2023/10/12 01:58:28;;;;;;;7.37;5.63;;;;;;;;;;5013879;28;20604;-63
2023/10/12 02:01:04;;;;;;;10.00;5.73;;;;;;;;;;5009967;28;20617;-64
2023/10/12 02:03:37;;;;;;;10.67;7.00;;;;;;;;;;5032021;28;20607;-63
2023/10/12 02:06:08;;;;;;;10.23;5.87;;;;;;;;;;5016932;28;20580;-63
2023/10/12 02:08:45;;;;;;;5.73;4.70;;;;;;;;;;5017114;28;20825;-64
2023/10/12 02:11:26;;;;;;;9.97;6.60;;;;;;;;;;5035352;28;20590;-62
2023/10/12 02:13:55;;;;;;;8.40;5.50;;;;;;;;;;5035361;28;20610;-63
2023/10/12 02:16:25;;;;;;;13.63;5.70;;;;;;;;;;5034516;28;20601;-63
2023/10/12 02:18:54;;;;;;;9.20;5.20;;;;;;;;;;5017447;28;21147;-63
2023/10/12 02:21:22;;;;;;;8.80;5.60;;;;;;;;;;5022820;28;20991;-64
2023/10/12 02:23:57;;;;;;;9.83;6.30;;;;;;;;;;5014930;28;21197;-63
2023/10/12 02:26:32;;;;;;;9.30;6.17;;;;;;;;;;5015176;28;20600;-63
2023/10/12 02:29:12;;;;;;;8.23;5.70;;;;;;;;;;5014606;28;20632;-63
2023/10/12 02:31:55;;;;;;;11.57;5.80;;;;;;;;;;5014496;28;20626;-63
2023/10/12 02:34:25;;;;;;;8.00;5.60;;;;;;;;;;5014560;28;20584;-64
2023/10/12 02:39:41;;;;;;;8.60;5.10;;;;;;;;;;5014883;28;20638;-63
2023/10/12 02:42:17;;;;;;;7.60;5.30;;;;;;;;;;5034060;28;20981;-63
2023/10/12 02:45:08;;;;;;;8.67;6.50;;;;;;;;;;5016201;28;21263;-63
2023/10/12 02:47:40;;;;;;;11.33;5.23;;;;;;;;;;5034439;28;20595;-64
2023/10/12 02:50:20;;;;;;;14.13;5.40;;;;;;;;;;5033833;28;20627;-64
2023/10/12 02:52:51;;;;;;;9.27;5.80;;;;;;;;;;5016731;28;20588;-63
2023/10/12 02:55:34;;;;;;;7.40;5.60;;;;;;;;;;5014648;28;21242;-63
2023/10/12 02:58:17;;;;;;;13.03;5.33;;;;;;;;;;5014371;28;20658;-63
2023/10/12 03:00:46;;;;;;;13.03;5.90;;;;;;;;;;5016542;28;20607;-63
2023/10/12 03:03:23;;;;;;;10.63;6.00;;;;;;;;;;5032524;28;20608;-64
2023/10/12 03:05:52;;;;;;;9.20;5.63;;;;;;;;;;5032946;28;20594;-64
2023/10/12 03:08:22;;;;;;;7.90;5.37;;;;;;;;;;5033424;28;21069;-64
2023/10/12 03:11:08;;;;;;;10.27;6.00;;;;;;;;;;5016190;28;20989;-63
2023/10/12 03:13:38;;;;;;;6.27;5.60;;;;;;;;;;5015370;28;21162;-64
2023/10/12 03:16:13;;;;;;;15.33;6.10;;;;;;;;;;5013865;28;20608;-65
2023/10/12 03:18:44;;;;;;;7.77;5.63;;;;;;;;;;5013648;28;21183;-64
2023/10/12 03:21:12;;;;;;;9.53;5.50;;;;;;;;;;5014036;28;21137;-63
2023/10/12 03:23:46;;;;;;;5.83;5.23;;;;;;;;;;4996493;28;21150;-63
2023/10/12 03:26:24;;;;;;;9.33;5.10;;;;;;;;;;5013849;28;20667;-63
2023/10/12 03:28:54;;;;;;;12.03;5.13;;;;;;;;;;4996489;28;20632;-63
2023/10/12 03:31:23;;;;;;;9.13;5.83;;;;;;;;;;5028485;28;20631;-63
2023/10/12 03:33:55;;;;;;;8.33;5.80;;;;;;;;;;5033337;28;21021;-64
2023/10/12 03:36:25;;;;;;;7.77;4.93;;;;;;;;;;5015982;28;20646;-63
2023/10/12 03:39:12;;;;;;;9.23;5.90;;;;;;;;;;5033631;28;20633;-64
2023/10/12 03:41:55;;;;;;;8.63;5.73;;;;;;;;;;5017472;28;20639;-64
2023/10/12 03:44:36;;;;;;;9.03;5.60;;;;;;;;;;5032776;28;21190;-63
2023/10/12 03:47:14;;;;;;;10.03;5.90;;;;;;;;;;5025558;28;20605;-63
2023/10/12 03:49:57;;;;;;;6.13;5.47;;;;;;;;;;5013182;28;20629;-63
2023/10/12 03:52:29;;;;;;;8.00;5.80;;;;;;;;;;5013098;28;20585;-63
2023/10/12 03:55:16;;;;;;;10.17;5.60;;;;;;;;;;5012856;28;21088;-64
2023/10/12 03:57:51;;;;;;;10.93;5.70;;;;;;;;;;5012522;28;20658;-63
2023/10/12 04:00:32;;;;;;;9.80;5.60;;;;;;;;;;5011551;28;21106;-63
2023/10/12 04:03:05;;;;;;;5.87;5.27;;;;;;;;;;5015661;28;20620;-64
2023/10/12 04:05:46;;;;;;;6.13;5.60;;;;;;;;;;5031923;28;20582;-63
2023/10/12 04:14:11;;;;;;;9.10;4.87;;;;;;;;;;5032623;28;20592;-63
2023/10/12 04:16:45;;;;;;;6.90;5.70;;;;;;;;;;5030966;28;20618;-63
2023/10/12 04:19:16;;;;;;;11.60;6.63;;;;;;;;;;5027473;28;20617;-63
2023/10/12 04:22:05;;;;;;;8.13;5.97;;;;;;;;;;5011368;28;21010;-63
2023/10/12 04:24:44;;;;;;;8.70;6.10;;;;;;;;;;5011789;28;20581;-63
2023/10/12 04:27:38;;;;;;;11.93;5.43;;;;;;;;;;5011491;28;20593;-63
2023/10/12 04:30:20;;;;;;;7.50;5.57;;;;;;;;;;5012645;28;20643;-64
2023/10/12 04:33:11;;;;;;;8.63;5.70;;;;;;;;;;5012214;28;20646;-63
2023/10/12 04:36:09;;;;;;;7.73;5.90;;;;;;;;;;5012804;28;20585;-63
2023/10/12 04:38:57;;;;;;;8.70;5.50;;;;;;;;;;5015562;28;21001;-64
2023/10/12 04:41:37;;;;;;;8.53;5.30;;;;;;;;;;5011939;28;20653;-63
2023/10/12 04:46:51;;;;;;;16.67;6.07;;;;;;;;;;5013489;28;20634;-63
2023/10/12 04:52:16;;;;;;;10.03;5.87;;;;;;;;;;5012290;28;20603;-64
2023/10/12 04:55:06;;;;;;;10.57;6.10;;;;;;;;;;5026147;28;20607;-63
2023/10/12 04:57:38;;;;;;;8.50;5.60;;;;;;;;;;5012378;28;20615;-63
2023/10/12 05:00:12;;;;;;;9.97;5.90;;;;;;;;;;5012334;28;21147;-65
2023/10/12 05:08:21;;;;;;;9.83;5.80;;;;;;;;;;5026813;28;20624;-63
2023/10/12 05:10:50;;;;;;;9.37;6.37;;;;;;;;;;5030383;28;20635;-63
2023/10/12 05:13:21;;;;;;;10.90;5.90;;;;;;;;;;5023906;28;21159;-63
2023/10/12 05:15:56;;;;;;;9.20;5.50;;;;;;;;;;5031259;28;20600;-63
2023/10/12 05:18:26;;;;;;;11.97;6.50;;;;;;;;;;5030766;28;20582;-63
2023/10/12 05:20:55;;;;;;;6.60;5.20;;;;;;;;;;5026817;28;20600;-63
2023/10/12 05:23:23;;;;;;;15.73;5.90;;;;;;;;;;5031117;28;20620;-63
2023/10/12 05:26:07;;;;;;;7.10;5.73;;;;;;;;;;5028272;28;20608;-63
2023/10/12 05:28:38;;;;;;;9.27;5.90;;;;;;;;;;5022570;28;20600;-64
2023/10/12 05:31:13;;;;;;;12.43;5.97;;;;;;;;;;5014184;28;20631;-65
2023/10/12 05:36:31;;;;;;;9.40;5.90;;;;;;;;;;5030970;28;20649;-64
2023/10/12 05:39:14;;;;;;;6.77;6.07;;;;;;;;;;5013435;28;20580;-64
2023/10/12 05:41:44;;;;;;;11.47;5.70;;;;;;;;;;5030607;28;20662;-63
2023/10/12 05:44:16;;;;;;;13.93;5.70;;;;;;;;;;5027938;28;20659;-63
2023/10/12 05:46:51;;;;;;;11.73;6.00;;;;;;;;;;5027283;28;20609;-63
2023/10/12 05:49:23;;;;;;;9.23;5.97;;;;;;;;;;5011974;28;20908;-63
2023/10/12 05:51:51;;;;;;;8.27;6.00;;;;;;;;;;5011686;28;20585;-64
2023/10/12 05:54:23;;;;;;;8.70;6.43;;;;;;;;;;5012140;28;20617;-64
2023/10/12 05:56:52;;;;;;;12.60;6.33;;;;;;;;;;5011436;28;20974;-63
2023/10/12 05:59:20;;;;;;;9.17;5.80;;;;;;;;;;5012321;28;20605;-63
2023/10/12 06:01:49;;;;;;;8.67;5.47;;;;;;;;;;5010686;28;20612;-64
2023/10/12 06:04:19;;;;;;;9.63;6.47;;;;;;;;;;5010768;28;21220;-65
2023/10/12 06:06:51;;;;;;;6.60;5.80;;;;;;;;;;5027510;28;20624;-63
2023/10/12 06:09:21;;;;;;;8.10;6.47;;;;;;;;;;5030933;28;21170;-64
2023/10/12 06:11:50;;;;;;;11.73;5.72;;;;;;;;;;5030927;28;20768;-65
2023/10/12 06:14:20;;;;;;;9.80;5.47;;;;;;;;;;5028595;28;20550;-66
2023/10/12 06:16:54;;;;;;;11.90;5.73;;;;;;;;;;5036557;28;21037;-65
2023/10/12 06:19:25;;;;;;;10.50;6.30;;;;;;;;;;5017481;28;20686;-64
2023/10/12 06:21:58;;;;;;;7.93;5.57;;;;;;;;;;5032522;28;20610;-64
2023/10/12 06:24:33;;;;;;;8.20;5.80;;;;;;;;;;5031606;28;21241;-64
2023/10/12 06:27:15;;;;;;;7.63;5.43;;;;;;;;;;5034478;28;20575;-64
2023/10/12 06:29:43;;;;;;;7.00;5.43;;;;;;;;;;5016718;28;20654;-63
2023/10/12 06:32:17;;;;;;;11.63;5.33;;;;;;;;;;5033642;28;20634;-63
2023/10/12 06:34:45;;;;;;;12.50;6.43;;;;;;;;;;5035091;28;20675;-63
2023/10/12 06:40:26;;;;;;;15.53;6.13;;;;;;;;;;5030229;28;21276;-65
2023/10/12 06:45:46;;;;;;;9.83;6.80;;;;;;;;;;5026289;28;21277;-65
2023/10/12 06:48:23;;;;;;;7.07;5.57;;;;;;;;;;5033828;28;20580;-65
2023/10/12 06:51:01;;;;;;;6.30;5.60;;;;;;;;;;5034814;28;20696;-65
2023/10/12 06:53:34;;;;;;;7.77;5.60;;;;;;;;;;5035135;28;21180;-66
2023/10/12 06:56:16;;;;;;;8.73;5.73;;;;;;;;;;5033257;28;20608;-65
2023/10/12 06:58:45;;;;;;;7.77;5.53;;;;;;;;;;5028711;28;20622;-65
2023/10/12 07:01:18;;;;;;;9.63;5.70;;;;;;;;;;5017239;28;20624;-66
2023/10/12 07:03:48;;;;;;;11.80;6.50;;;;;;;;;;5034645;28;20606;-65
2023/10/12 07:06:16;;;;;;;6.70;5.90;;;;;;;;;;5032758;28;20697;-66
2023/10/12 07:08:46;;;;;;;6.87;6.17;;;;;;;;;;5016980;28;20611;-65
2023/10/12 07:11:14;;;;;;;8.13;6.17;;;;;;;;;;5034754;28;20656;-64
2023/10/12 07:13:42;;;;;;;12.40;5.83;;;;;;;;;;5032902;28;21197;-64
2023/10/12 07:16:15;;;;;;;9.60;5.67;;;;;;;;;;5025929;28;21000;-65
2023/10/12 07:18:44;;;;;;;10.23;6.07;;;;;;;;;;4995692;28;20597;-65
2023/10/12 07:21:21;;;;;;;10.90;5.93;;;;;;;;;;5014211;28;20635;-65
2023/10/12 07:23:52;;;;;;;11.33;5.43;;;;;;;;;;5013511;28;20643;-65
2023/10/12 07:26:21;;;;;;;9.63;5.67;;;;;;;;;;5013975;28;21195;-63
2023/10/12 07:28:50;;;;;;;6.50;5.90;;;;;;;;;;5013215;28;21241;-64
2023/10/12 07:31:37;;;;;;;8.80;6.50;;;;;;;;;;5025564;28;20655;-64
2023/10/12 07:34:13;;;;;;;11.17;5.77;;;;;;;;;;5029925;28;20620;-64
2023/10/12 07:36:57;;;;;;;10.50;5.80;;;;;;;;;;5014334;28;20592;-64
2023/10/12 07:43:38;;;;;;;8.13;5.80;;;;;;;;;;5011136;28;20682;-64
2023/10/12 07:46:13;;;;;;;7.83;6.83;;;;;;;;;;5012695;28;20609;-66
2023/10/12 07:48:42;;;;;;;10.23;6.40;;;;;;;;;;5020131;28;20611;-65
2023/10/12 07:51:24;;;;;;;12.10;6.70;;;;;;;;;;5028462;28;20659;-65
2023/10/12 07:53:59;;;;;;;12.00;6.90;;;;;;;;;;5014859;28;21190;-65
2023/10/12 07:56:33;;;;;;;7.93;6.20;;;;;;;;;;5033738;28;20610;-65
2023/10/12 07:59:13;;;;;;;9.60;6.70;;;;;;;;;;5031519;28;20677;-64
2023/10/12 08:01:47;;;;;;;14.53;7.00;;;;;;;;;;5032969;28;21144;-65
2023/10/12 08:04:29;;;;;;;8.13;6.03;;;;;;;;;;5031310;28;20588;-65
2023/10/12 08:06:57;;;;;;;10.20;6.97;;;;;;;;;;5032311;28;21156;-64
2023/10/12 08:09:47;;;;;;;8.67;6.50;;;;;;;;;;5027386;28;20628;-65
2023/10/12 08:12:26;;;;;;;11.80;6.87;;;;;;;;;;5032899;28;21009;-65
2023/10/12 08:15:07;;;;;;;9.67;7.13;;;;;;;;;;5032824;28;20587;-65
2023/10/12 08:17:39;;;;;;;9.87;7.07;;;;;;;;;;5034093;28;20638;-66
2023/10/12 08:22:57;;;;;;;8.50;7.27;;;;;;;;;;5033071;28;20754;-64
2023/10/12 08:25:37;;;;;;;7.33;6.73;;;;;;;;;;5026231;28;21051;-64
2023/10/12 08:28:19;;;;;;;7.63;6.90;;;;;;;;;;5013643;28;20585;-64
2023/10/12 08:30:48;;;;;;;8.27;6.50;;;;;;;;;;4996204;28;20640;-64
2023/10/12 08:33:48;;;;;;;7.60;6.90;;;;;;;;;;5030242;28;20643;-65
2023/10/12 08:36:23;;;;;;;10.03;6.50;;;;;;;;;;5031926;28;20677;-65
2023/10/12 08:38:54;;;;;;;9.23;7.37;;;;;;;;;;5014528;28;20588;-65
2023/10/12 08:41:28;;;;;;;11.27;7.00;;;;;;;;;;5029039;28;20614;-65
2023/10/12 08:44:00;;;;;;;7.60;6.80;;;;;;;;;;5014450;28;20679;-65
2023/10/12 08:46:56;;;;;;;8.07;7.03;;;;;;;;;;5012785;28;20591;-64
2023/10/12 08:49:43;;;;;;;17.43;8.20;;;;;;;;;;5012389;28;20593;-64
2023/10/12 08:52:18;;;;;;;11.20;7.20;;;;;;;;;;5012048;28;20647;-64
2023/10/12 08:54:52;;;;;;;13.03;6.97;;;;;;;;;;5026956;28;20603;-63
2023/10/12 08:57:32;;;;;;;12.13;7.47;;;;;;;;;;5028806;28;20997;-64
2023/10/12 09:00:23;;;;;;;11.60;7.03;;;;;;;;;;4998247;28;20653;-64
2023/10/12 09:02:59;;;;;;;10.87;7.30;;;;;;;;;;5030006;28;20600;-64
2023/10/12 09:05:29;;;;;;;10.83;7.10;;;;;;;;;;5013465;28;20600;-64
2023/10/12 09:08:08;;;;;;;8.23;7.40;;;;;;;;;;5013649;28;20669;-63
2023/10/12 09:10:51;;;;;;;8.60;7.07;;;;;;;;;;5033046;28;20701;-65
2023/10/12 09:13:20;;;;;;;15.40;8.00;;;;;;;;;;5033715;28;20669;-64
2023/10/12 09:15:49;;;;;;;9.60;7.20;;;;;;;;;;5029267;28;20628;-64
2023/10/12 09:18:19;;;;;;;9.63;7.13;;;;;;;;;;5032901;28;20998;-63
2023/10/12 09:20:59;;;;;;;12.80;7.60;;;;;;;;;;5033751;28;20588;-64
2023/10/12 09:23:31;;;;;;;11.50;8.10;;;;;;;;;;5035882;28;20710;-63
2023/10/12 09:26:15;;;;;;;13.03;7.10;;;;;;;;;;5034493;28;20580;-63
2023/10/12 09:28:58;;;;;;;12.10;7.10;;;;;;;;;;5034916;28;21185;-63
2023/10/12 09:36:57;;;;;;;16.23;6.90;;;;;;;;;;5032043;28;20619;-63
2023/10/12 09:39:27;;;;;;;7.90;7.10;;;;;;;;;;5032692;28;20616;-63
2023/10/12 09:41:59;;;;;;;10.93;8.03;;;;;;;;;;5014786;28;20669;-64
2023/10/12 09:44:37;;;;;;;10.20;7.67;;;;;;;;;;5033015;28;20746;-63
2023/10/12 09:47:09;;;;;;;11.40;8.20;;;;;;;;;;5033307;28;21044;-63
2023/10/12 09:49:44;;;;;;;17.43;8.80;;;;;;;;;;5027839;28;20827;-64
2023/10/12 09:52:15;;;;;;;11.93;7.00;;;;;;;;;;5032975;28;20692;-64
2023/10/12 09:54:46;;;;;;;10.70;7.43;;;;;;;;;;5033793;28;20604;-63
2023/10/12 09:57:23;;;;;;;16.03;7.93;;;;;;;;;;5032691;28;20603;-62
2023/10/12 09:59:59;;;;;;;9.73;8.73;;;;;;;;;;5033965;28;21034;-62
2023/10/12 10:02:33;;;;;;;18.83;8.00;;;;;;;;;;5032971;28;20576;-63
2023/10/12 10:05:11;;;;;;;9.80;8.07;;;;;;;;;;5033184;28;20677;-63
2023/10/12 10:07:49;;;;;;;10.73;8.03;;;;;;;;;;5023539;28;20615;-62
2023/10/12 10:10:30;;;;;;;14.03;8.30;;;;;;;;;;5030868;28;20602;-63
2023/10/12 10:12:59;;;;;;;9.37;8.23;;;;;;;;;;5034069;28;20793;-63
2023/10/12 10:15:36;;;;;;;9.03;7.87;;;;;;;;;;5033887;28;20619;-63
2023/10/12 10:18:05;;;;;;;9.10;7.23;;;;;;;;;;5034596;28;20682;-62
2023/10/12 10:20:50;;;;;;;10.20;7.40;;;;;;;;;;5033707;28;20826;-63
2023/10/12 10:23:19;;;;;;;11.60;8.00;;;;;;;;;;5030842;28;20690;-62
2023/10/12 10:25:56;;;;;;;8.97;7.73;;;;;;;;;;5037128;28;20711;-63
2023/10/12 10:28:27;;;;;;;11.80;8.67;;;;;;;;;;5020162;28;20610;-62
2023/10/12 10:30:59;;;;;;;10.70;8.43;;;;;;;;;;5036867;28;20708;-62
2023/10/12 10:33:28;;;;;;;13.50;8.33;;;;;;;;;;5034327;28;21081;-63
2023/10/12 10:36:09;;;;;;;16.83;7.93;;;;;;;;;;5037966;28;20706;-62
2023/10/12 10:38:49;;;;;;;12.67;7.70;;;;;;;;;;5036502;28;20702;-63
2023/10/12 10:41:22;;;;;;;13.93;7.70;;;;;;;;;;5035687;28;21044;-64
2023/10/12 10:43:53;;;;;;;11.13;7.30;;;;;;;;;;4993756;28;20648;-63
2023/10/12 10:46:26;;;;;;;19.40;8.07;;;;;;;;;;5037110;28;20685;-62
2023/10/12 10:48:56;;;;;;;12.77;8.53;;;;;;;;;;5037497;28;20663;-62
2023/10/12 10:51:27;;;;;;;8.87;7.97;;;;;;;;;;5034611;28;20699;-63
2023/10/12 10:53:56;;;;;;;13.43;9.53;;;;;;;;;;5037455;28;20596;-62
2023/10/12 10:56:34;;;;;;;14.73;8.53;;;;;;;;;;5035759;28;21073;-62
2023/10/12 10:59:02;;;;;;;11.80;7.50;;;;;;;;;;5034873;28;20691;-63
2023/10/12 11:01:30;;;;;;;13.77;7.90;;;;;;;;;;5026014;28;20620;-62
2023/10/12 11:04:01;;;;;;;10.90;8.60;;;;;;;;;;5036263;28;20624;-64
2023/10/12 11:06:31;;;;;;;15.90;8.60;;;;;;;;;;5033388;28;20604;-63
2023/10/12 11:09:06;;;;;;;11.70;8.50;;;;;;;;;;5036514;28;21051;-62
2023/10/12 11:14:17;;;;;;;9.23;8.23;;;;;;;;;;5034006;28;20711;-63
2023/10/12 11:16:47;;;;;;;9.73;8.33;;;;;;;;;;5034790;28;20720;-62
2023/10/12 11:19:18;;;;;;;9.03;7.87;;;;;;;;;;5034869;28;20611;-63
2023/10/12 11:21:51;;;;;;;9.83;8.47;;;;;;;;;;5033696;28;20618;-63
2023/10/12 11:24:22;;;;;;;9.63;8.63;;;;;;;;;;5035030;28;21251;-63
2023/10/12 11:26:52;;;;;;;10.23;9.23;;;;;;;;;;5034944;28;20588;-63
2023/10/12 11:29:20;;;;;;;10.00;9.10;;;;;;;;;;5033204;28;20611;-62
2023/10/12 11:32:08;;;;;;;10.47;8.67;;;;;;;;;;5034149;28;20623;-62
2023/10/12 11:34:36;;;;;;;12.80;8.43;;;;;;;;;;5031164;28;20673;-67
2023/10/12 11:37:06;;;;;;;10.50;8.97;;;;;;;;;;5032408;28;20619;-62
2023/10/12 11:39:41;;;;;;;12.90;8.80;;;;;;;;;;5033735;28;20619;-64
2023/10/12 11:42:12;;;;;;;12.80;10.50;;;;;;;;;;5032582;28;20572;-63
2023/10/12 11:44:43;;;;;;;10.13;9.10;;;;;;;;;;5031752;28;20675;-62
2023/10/12 11:47:13;;;;;;;15.80;9.47;;;;;;;;;;5033907;28;20600;-63
2023/10/12 11:49:55;;;;;;;10.30;9.30;;;;;;;;;;5018450;28;20613;-63
2023/10/12 11:52:32;;;;;;;9.87;7.43;;;;;;;;;;5014866;28;20650;-63
2023/10/12 11:55:06;;;;;;;12.27;9.23;;;;;;;;;;5032603;28;20661;-63
2023/10/12 11:57:34;;;;;;;8.50;7.73;;;;;;;;;;5031441;28;20611;-62
2023/10/12 12:00:20;;;;;;;11.23;8.00;;;;;;;;;;5032391;28;20616;-63
2023/10/12 12:02:48;;;;;;;8.53;7.60;;;;;;;;;;5031954;28;20666;-64
2023/10/12 12:05:17;;;;;;;18.47;8.60;;;;;;;;;;5031830;28;20620;-63
2023/10/12 12:07:51;;;;;;;9.40;8.00;;;;;;;;;;5032063;28;20628;-63
2023/10/12 12:10:24;;;;;;;9.13;8.37;;;;;;;;;;5030679;28;20592;-63
2023/10/12 12:12:53;;;;;;;10.43;8.57;;;;;;;;;;5031574;28;20648;-63
2023/10/12 12:15:24;;;;;;;11.77;8.70;;;;;;;;;;5032458;28;20618;-63
2023/10/12 12:17:53;;;;;;;12.27;7.67;;;;;;;;;;5032667;28;20599;-63
2023/10/12 12:20:22;;;;;;;12.30;8.03;;;;;;;;;;5030047;28;20620;-63
2023/10/12 12:22:57;;;;;;;10.30;7.50;;;;;;;;;;5032336;28;20616;-63
2023/10/12 12:25:32;;;;;;;18.60;8.50;;;;;;;;;;5012588;28;20665;-63
2023/10/12 12:28:02;;;;;;;17.20;8.60;;;;;;;;;;5033407;28;20650;-63
2023/10/12 12:30:35;;;;;;;9.40;8.50;;;;;;;;;;4999379;28;20634;-63
2023/10/12 12:33:08;;;;;;;9.67;7.57;;;;;;;;;;5016024;28;20624;-64
2023/10/12 12:35:38;;;;;;;12.50;8.77;;;;;;;;;;5033831;28;20580;-63
2023/10/12 12:38:22;;;;;;;11.50;8.43;;;;;;;;;;5016024;28;20628;-65
2023/10/12 12:40:52;;;;;;;8.73;7.60;;;;;;;;;;5033532;28;20580;-62
2023/10/12 12:43:20;;;;;;;12.60;7.37;;;;;;;;;;5019821;28;20664;-63
2023/10/12 12:45:49;;;;;;;8.50;7.40;;;;;;;;;;5013529;28;20628;-63
2023/10/12 12:48:17;;;;;;;18.10;7.83;;;;;;;;;;5012963;28;20608;-63
2023/10/12 12:50:47;;;;;;;12.60;8.03;;;;;;;;;;4995683;28;20611;-62
2023/10/12 12:53:18;;;;;;;10.90;7.93;;;;;;;;;;5013231;28;21703;-61
2023/10/12 12:55:47;;;;;;;14.33;8.90;;;;;;;;;;5013267;28;20577;-63
2023/10/12 12:58:15;;;;;;;10.67;8.37;;;;;;;;;;5021267;28;20665;-62
2023/10/12 13:00:46;;;;;;;13.43;7.77;;;;;;;;;;5026638;28;20632;-63
2023/10/12 13:03:14;;;;;;;20.40;8.43;;;;;;;;;;5031594;28;20604;-63
2023/10/12 13:05:44;;;;;;;10.20;8.00;;;;;;;;;;5031864;28;20614;-63
2023/10/12 13:08:12;;;;;;;23.37;8.70;;;;;;;;;;5014379;28;20612;-62
2023/10/12 13:10:42;;;;;;;11.33;7.73;;;;;;;;;;5031331;28;21032;-62
2023/10/12 13:13:12;;;;;;;14.10;8.80;;;;;;;;;;5031215;28;20644;-62
2023/10/12 13:15:42;;;;;;;18.70;8.20;;;;;;;;;;5032421;28;20638;-63
2023/10/12 13:18:14;;;;;;;17.10;8.40;;;;;;;;;;5030009;28;20638;-62
2023/10/12 13:20:46;;;;;;;16.97;7.10;;;;;;;;;;5031436;28;20589;-63
2023/10/12 13:23:15;;;;;;;17.47;8.57;;;;;;;;;;5014938;28;20591;-62
2023/10/12 13:25:45;;;;;;;12.17;7.70;;;;;;;;;;5033058;28;20612;-64
2023/10/12 13:28:13;;;;;;;8.63;7.63;;;;;;;;;;5030285;28;20612;-62
2023/10/12 13:30:41;;;;;;;14.57;8.13;;;;;;;;;;5013994;28;20959;-62
2023/10/12 13:33:11;;;;;;;13.33;7.10;;;;;;;;;;5030459;28;21270;-63
2023/10/12 13:35:43;;;;;;;18.13;8.10;;;;;;;;;;5027087;28;20626;-63
2023/10/12 13:38:13;;;;;;;12.80;8.57;;;;;;;;;;5030992;28;20612;-63
2023/10/12 13:40:43;;;;;;;12.57;8.43;;;;;;;;;;5031302;28;20612;-63
2023/10/12 13:43:18;;;;;;;15.57;8.30;;;;;;;;;;5030076;28;20655;-63
2023/10/12 13:45:48;;;;;;;15.67;8.00;;;;;;;;;;5031202;28;20607;-63
2023/10/12 13:48:18;;;;;;;13.57;8.43;;;;;;;;;;5030938;28;20626;-64
2023/10/12 13:50:51;;;;;;;12.17;8.50;;;;;;;;;;5029000;28;20654;-62
2023/10/12 13:53:23;;;;;;;12.67;9.27;;;;;;;;;;5024818;28;20717;-62
2023/10/12 13:55:53;;;;;;;10.60;9.50;;;;;;;;;;5030791;28;21126;-63
2023/10/12 13:58:24;;;;;;;9.27;8.40;;;;;;;;;;5033631;28;20692;-63
2023/10/12 14:00:53;;;;;;;20.00;9.57;;;;;;;;;;5033544;28;20638;-63
2023/10/12 14:03:28;;;;;;;17.73;9.10;;;;;;;;;;5034190;28;20619;-64
2023/10/12 14:05:56;;;;;;;13.17;9.10;;;;;;;;;;5035215;28;20580;-65
2023/10/12 14:08:24;;;;;;;14.60;9.20;;;;;;;;;;5035822;28;20612;-62
2023/10/12 14:10:52;;;;;;;14.30;8.53;;;;;;;;;;5030960;28;20616;-63
2023/10/12 14:13:22;;;;;;;13.43;9.13;;;;;;;;;;5035036;28;20660;-63
2023/10/12 14:15:51;;;;;;;9.83;8.83;;;;;;;;;;5035088;28;20689;-63
2023/10/12 14:18:19;;;;;;;8.23;7.43;;;;;;;;;;5035559;28;20612;-63
2023/10/12 14:20:49;;;;;;;11.03;9.43;;;;;;;;;;5035311;28;20638;-62
2023/10/12 14:23:17;;;;;;;11.10;8.93;;;;;;;;;;5035005;28;20599;-63
2023/10/12 14:25:47;;;;;;;12.40;8.43;;;;;;;;;;5015799;28;20620;-63
2023/10/12 14:28:17;;;;;;;12.00;9.00;;;;;;;;;;5015942;28;20605;-64
2023/10/12 14:30:47;;;;;;;9.90;8.90;;;;;;;;;;5015042;28;20674;-63
2023/10/12 14:33:16;;;;;;;12.43;10.53;;;;;;;;;;5023611;28;20652;-63
2023/10/12 14:35:44;;;;;;;13.10;8.50;;;;;;;;;;5034159;28;20622;-63
2023/10/12 14:38:14;;;;;;;13.40;8.90;;;;;;;;;;5035847;28;20619;-63
2023/10/12 14:40:42;;;;;;;15.03;9.70;;;;;;;;;;5034513;28;20692;-64
2023/10/12 14:43:11;;;;;;;9.30;8.33;;;;;;;;;;5033623;28;20681;-64
2023/10/12 14:45:43;;;;;;;11.63;9.60;;;;;;;;;;5009524;28;20643;-62
2023/10/12 14:48:13;;;;;;;15.63;9.03;;;;;;;;;;5011540;28;20588;-64
2023/10/12 14:50:43;;;;;;;9.57;8.70;;;;;;;;;;5018470;28;20616;-63
2023/10/12 14:53:11;;;;;;;13.90;8.10;;;;;;;;;;5016123;28;20616;-64
2023/10/12 14:55:40;;;;;;;8.93;7.80;;;;;;;;;;5018018;28;20990;-64
2023/10/12 14:58:09;;;;;;;17.33;9.20;;;;;;;;;;5023715;28;20644;-64
2023/10/12 15:00:37;;;;;;;14.00;8.60;;;;;;;;;;5035445;28;21004;-64
2023/10/12 15:03:06;;;;;;;10.93;8.40;;;;;;;;;;5045714;28;20616;-66
2023/10/12 15:05:39;;;;;;;10.07;9.10;;;;;;;;;;5015736;28;20988;-64
2023/10/12 15:08:08;;;;;;;12.47;8.50;;;;;;;;;;5032053;28;20591;-64
2023/10/12 15:10:40;;;;;;;10.13;9.13;;;;;;;;;;5032927;28;20688;-66
2023/10/12 15:13:11;;;;;;;13.33;9.27;;;;;;;;;;5031632;28;20951;-63
2023/10/12 15:15:40;;;;;;;11.17;9.63;;;;;;;;;;5033708;28;20969;-63
2023/10/12 15:18:09;;;;;;;8.80;7.97;;;;;;;;;;5010837;28;20623;-64
2023/10/12 15:20:38;;;;;;;10.17;9.20;;;;;;;;;;5013139;28;20627;-64
2023/10/12 15:23:08;;;;;;;11.20;8.20;;;;;;;;;;5034542;28;20630;-65
2023/10/12 15:25:36;;;;;;;10.37;8.57;;;;;;;;;;5034264;28;21154;-67
2023/10/12 15:28:06;;;;;;;14.90;8.27;;;;;;;;;;5034129;28;20615;-63
2023/10/12 15:30:35;;;;;;;9.10;8.20;;;;;;;;;;5034606;28;20681;-63
2023/10/12 15:33:04;;;;;;;9.47;8.47;;;;;;;;;;5034182;28;20623;-63
2023/10/12 15:35:33;;;;;;;9.77;7.70;;;;;;;;;;5028861;28;20675;-64
2023/10/12 15:38:02;;;;;;;9.23;7.80;;;;;;;;;;5033487;28;20624;-65
2023/10/12 15:40:36;;;;;;;9.27;7.83;;;;;;;;;;5031774;28;20646;-63
2023/10/12 15:43:06;;;;;;;15.83;7.97;;;;;;;;;;5020142;28;20666;-64
2023/10/12 15:45:35;;;;;;;14.30;7.20;;;;;;;;;;5034129;28;20619;-63
2023/10/12 15:48:04;;;;;;;10.50;8.03;;;;;;;;;;5033943;28;20622;-63
2023/10/12 15:50:34;;;;;;;10.50;7.33;;;;;;;;;;5032013;28;20638;-64
2023/10/12 15:53:03;;;;;;;11.67;7.60;;;;;;;;;;5015887;28;20665;-63
2023/10/12 15:55:34;;;;;;;13.30;7.70;;;;;;;;;;5033951;28;20664;-63
2023/10/12 15:58:03;;;;;;;16.33;7.60;;;;;;;;;;5033410;28;21315;-64